createdAt,value
2022-11-14T00:00:15.650Z,5.80
2022-11-14T00:05:42.544Z,4.60
2022-11-14T00:10:49.241Z,4.80
2022-11-14T00:15:56.540Z,4.90
2022-11-14T00:20:59.960Z,5.70
2022-11-14T00:26:03.484Z,5.70
2022-11-14T00:31:06.993Z,4.80
2022-11-14T00:36:10.486Z,3.30
2022-11-14T00:41:13.918Z,4.50
2022-11-14T00:46:17.474Z,3.60
2022-11-14T00:51:20.849Z,3.80
2022-11-14T00:56:24.365Z,4.80
2022-11-14T01:01:27.894Z,3.70
2022-11-14T01:06:31.293Z,3.90
2022-11-14T01:11:34.771Z,4.30
2022-11-14T01:16:38.325Z,3.70
2022-11-14T01:21:41.773Z,3.20
2022-11-14T01:26:45.123Z,3.10
2022-11-14T01:31:48.464Z,4.20
2022-11-14T01:36:52.506Z,2.60
2022-11-14T01:41:56.118Z,2.80
2022-11-14T01:46:59.557Z,2.40
2022-11-14T01:52:08.906Z,3.50
2022-11-14T01:57:15.465Z,3.00
2022-11-14T02:02:25.823Z,3.30
2022-11-14T02:07:34.700Z,3.30
2022-11-14T02:12:38.741Z,3.50
2022-11-14T02:17:44.280Z,3.00
2022-11-14T02:22:47.863Z,1.90
2022-11-14T02:27:52.263Z,2.80
2022-11-14T02:33:11.701Z,2.30
2022-11-14T02:38:15.549Z,2.00
2022-11-14T02:43:19.000Z,2.90
2022-11-14T02:48:22.477Z,2.60
2022-11-14T02:53:26.097Z,2.70
2022-11-14T02:58:29.848Z,2.60
2022-11-14T03:03:34.077Z,3.40
2022-11-14T03:08:37.468Z,2.90
2022-11-14T03:13:40.979Z,3.70
2022-11-14T03:18:44.423Z,3.60
2022-11-14T03:23:48.218Z,3.10
2022-11-14T03:28:51.673Z,3.30
2022-11-14T03:33:55.266Z,4.30
2022-11-14T03:38:58.670Z,3.40
2022-11-14T03:44:02.182Z,4.30
2022-11-14T03:49:06.109Z,5.00
2022-11-14T03:54:09.832Z,4.00
2022-11-14T03:59:13.352Z,4.80
2022-11-14T04:04:17.071Z,4.80
2022-11-14T04:09:20.580Z,4.60
2022-11-14T04:14:24.099Z,4.60
2022-11-14T04:19:27.519Z,3.90
2022-11-14T04:24:30.940Z,4.10
2022-11-14T04:29:34.259Z,4.70
2022-11-14T04:34:37.655Z,4.70
2022-11-14T04:39:41.081Z,5.50
2022-11-14T04:44:44.597Z,4.60
2022-11-14T04:49:47.988Z,4.10
2022-11-14T04:54:51.321Z,4.90
2022-11-14T04:59:54.720Z,6.00
2022-11-14T05:04:58.161Z,3.90
2022-11-14T05:10:01.461Z,3.90
2022-11-14T05:15:06.047Z,5.30
2022-11-14T05:20:10.932Z,5.20
2022-11-14T05:25:14.348Z,4.40
2022-11-14T05:30:19.614Z,4.90
2022-11-14T05:35:23.036Z,4.90
2022-11-14T05:40:26.543Z,4.20
2022-11-14T05:45:31.455Z,3.90
2022-11-14T05:50:34.852Z,3.50
2022-11-14T05:55:38.211Z,4.40
2022-11-14T06:00:48.928Z,3.90
2022-11-14T06:05:55.661Z,4.40
2022-11-14T06:11:08.210Z,5.40
2022-11-14T06:16:15.318Z,4.10
2022-11-14T06:21:22.726Z,5.10
2022-11-14T06:26:31.671Z,4.10
2022-11-14T06:31:35.082Z,3.00
2022-11-14T06:36:38.600Z,4.50
2022-11-14T06:41:42.121Z,4.60
2022-11-14T06:46:45.631Z,3.90
2022-11-14T06:51:49.946Z,3.40
2022-11-14T06:56:53.280Z,4.30
2022-11-14T07:01:56.686Z,3.30
2022-11-14T07:07:00.272Z,5.20
2022-11-14T07:12:04.117Z,5.30
2022-11-14T07:17:07.493Z,5.20
2022-11-14T07:22:11.036Z,4.20
2022-11-14T07:27:14.582Z,4.20
2022-11-14T07:32:18.203Z,3.80
2022-11-14T07:37:21.715Z,4.40
2022-11-14T07:42:30.298Z,2.30
2022-11-14T07:47:33.662Z,4.70
2022-11-14T07:52:37.282Z,3.10
2022-11-14T07:57:45.124Z,3.70
2022-11-14T08:02:51.595Z,3.10
2022-11-14T08:07:55.023Z,3.20
2022-11-14T08:13:29.859Z,3.10
2022-11-14T08:18:24.801Z,2.80
2022-11-14T08:23:28.183Z,3.10
2022-11-14T08:28:31.968Z,2.80
2022-11-14T08:33:35.829Z,1.70
2022-11-14T08:38:39.276Z,2.70
2022-11-14T08:43:42.660Z,3.00
2022-11-14T08:48:46.176Z,3.70
2022-11-14T08:53:49.690Z,3.30
2022-11-14T08:58:53.082Z,3.10
2022-11-14T09:03:59.881Z,3.30
2022-11-14T09:09:03.922Z,2.80
2022-11-14T09:14:07.745Z,4.00
2022-11-14T09:19:11.168Z,2.80
2022-11-14T09:24:14.780Z,3.80
2022-11-14T09:29:19.320Z,2.50
2022-11-14T09:34:22.937Z,4.10
2022-11-14T09:39:26.385Z,3.00
2022-11-14T09:45:02.738Z,3.90
2022-11-14T09:50:16.050Z,4.60
2022-11-14T09:55:33.601Z,3.80
2022-11-14T10:01:09.529Z,4.30
2022-11-14T10:06:47.841Z,4.50
2022-11-14T10:12:04.693Z,4.50
2022-11-14T10:17:51.315Z,3.90
2022-11-14T10:23:38.947Z,3.50
2022-11-14T10:29:12.417Z,3.60
2022-11-14T10:34:36.156Z,4.00
2022-11-14T10:39:54.620Z,4.70
2022-11-14T10:45:06.945Z,4.30
2022-11-14T10:50:37.801Z,3.70
2022-11-14T10:56:03.015Z,5.20
2022-11-14T11:01:34.303Z,4.70
2022-11-14T11:06:37.916Z,4.90
2022-11-14T11:11:58.633Z,4.40
2022-11-14T11:17:22.371Z,4.40
2022-11-14T11:22:39.161Z,3.10
2022-11-14T11:27:42.493Z,3.50
2022-11-14T11:32:46.186Z,4.60
2022-11-14T11:37:54.972Z,3.90
2022-11-14T11:43:38.518Z,4.60
2022-11-14T11:48:40.758Z,4.80
2022-11-14T11:54:00.259Z,3.70
2022-11-14T11:59:42.821Z,3.60
2022-11-14T12:04:46.196Z,3.70
2022-11-14T12:15:53.040Z,2.70
2022-11-14T12:21:31.779Z,3.80
2022-11-14T12:26:46.926Z,2.30
2022-11-14T12:32:04.133Z,3.60
2022-11-14T12:37:21.076Z,2.70
2022-11-14T12:42:25.236Z,2.40
2022-11-14T12:47:29.301Z,2.80
2022-11-14T12:52:44.810Z,4.10
2022-11-14T12:58:15.752Z,4.20
2022-11-14T13:04:02.655Z,2.90
2022-11-14T13:09:35.794Z,4.10
2022-11-14T13:15:18.737Z,4.50
2022-11-14T13:20:40.994Z,4.00
2022-11-14T13:25:44.521Z,3.70
2022-11-14T13:31:16.310Z,3.80
2022-11-14T13:36:50.114Z,3.60
2022-11-14T13:42:26.606Z,4.70
2022-11-14T13:48:01.009Z,3.30
2022-11-14T13:53:19.407Z,3.00
2022-11-14T13:58:43.102Z,4.20
2022-11-14T14:03:55.622Z,3.00
2022-11-14T14:09:39.284Z,3.70
2022-11-14T14:15:00.832Z,3.90
2022-11-14T14:20:48.823Z,5.00
2022-11-14T14:26:16.572Z,3.20
2022-11-14T14:31:23.451Z,3.50
2022-11-14T14:36:31.079Z,2.50
2022-11-14T14:41:36.272Z,3.30
2022-11-14T14:46:40.255Z,3.70
2022-11-14T14:51:44.796Z,2.00
2022-11-14T14:57:03.651Z,3.10
2022-11-14T15:02:17.474Z,2.50
2022-11-14T15:07:25.230Z,3.80
2022-11-14T15:12:31.626Z,4.00
2022-11-14T15:17:36.395Z,3.90
2022-11-14T15:22:39.894Z,4.90
2022-11-14T15:27:54.167Z,5.60
2022-11-14T15:33:01.348Z,5.50
2022-11-14T15:38:43.511Z,4.60
2022-11-14T15:43:43.522Z,4.50
2022-11-14T15:48:47.184Z,5.00
2022-11-14T15:53:52.292Z,4.70
2022-11-14T15:58:55.809Z,3.50
2022-11-14T16:03:59.424Z,4.30
2022-11-14T16:09:02.843Z,5.40
2022-11-14T16:14:06.564Z,4.10
2022-11-14T16:19:17.217Z,4.00
2022-11-14T16:24:23.899Z,3.60
2022-11-14T16:29:27.454Z,2.70
2022-11-14T16:34:31.178Z,3.30
2022-11-14T16:39:34.591Z,4.10
2022-11-14T16:44:42.003Z,5.80
2022-11-14T16:49:47.661Z,4.00
2022-11-14T16:54:51.077Z,5.00
2022-11-14T16:59:54.488Z,5.10
2022-11-14T17:04:57.901Z,5.30
2022-11-14T17:10:01.836Z,5.80
2022-11-14T17:15:06.314Z,6.00
2022-11-14T17:20:11.103Z,6.70
2022-11-14T17:25:14.634Z,5.80
2022-11-14T17:30:19.071Z,7.40
2022-11-14T17:35:22.548Z,6.50
2022-11-14T17:40:26.119Z,5.60
2022-11-14T17:45:29.625Z,7.40
2022-11-14T17:50:37.476Z,5.80
2022-11-14T17:55:41.770Z,7.30
2022-11-14T18:00:45.284Z,5.70
2022-11-14T18:05:48.910Z,8.30
2022-11-14T18:10:53.553Z,7.60
2022-11-14T18:16:14.013Z,7.70
2022-11-14T18:21:21.778Z,7.40
2022-11-14T18:26:28.979Z,7.70
2022-11-14T18:31:32.605Z,9.20
2022-11-14T18:36:36.113Z,8.60
2022-11-14T18:41:39.650Z,7.50
2022-11-14T18:46:43.146Z,10.20
2022-11-14T18:51:46.974Z,9.40
2022-11-14T18:56:51.596Z,5.80
2022-11-14T19:01:54.992Z,10.30
2022-11-14T19:06:58.578Z,8.90
2022-11-14T19:12:23.130Z,12.50
2022-11-14T19:17:26.513Z,11.10
2022-11-14T19:22:30.148Z,12.20
2022-11-14T19:27:33.622Z,9.40
2022-11-14T19:32:37.116Z,10.50
2022-11-14T19:37:40.474Z,9.90
2022-11-14T19:42:43.931Z,8.10
2022-11-14T19:47:48.085Z,9.30
2022-11-14T19:52:52.718Z,6.60
2022-11-14T19:57:56.447Z,12.10
2022-11-14T20:02:59.954Z,11.20
2022-11-14T20:08:03.478Z,10.30
2022-11-14T20:13:06.886Z,13.60
2022-11-14T20:18:10.383Z,7.50
2022-11-14T20:23:14.391Z,12.60
2022-11-14T20:28:17.887Z,12.50
2022-11-14T20:33:21.336Z,12.90
2022-11-14T20:38:24.874Z,14.00
2022-11-14T20:43:29.622Z,11.90
2022-11-14T20:48:34.742Z,13.90
2022-11-14T20:53:38.704Z,11.00
2022-11-14T20:58:48.774Z,13.60
2022-11-14T21:03:52.448Z,8.80
2022-11-14T21:08:55.984Z,9.50
2022-11-14T21:13:59.526Z,9.70
2022-11-14T21:19:04.961Z,13.10
2022-11-14T21:24:08.561Z,5.60
2022-11-14T21:29:14.086Z,10.40
2022-11-14T21:34:18.333Z,12.00
2022-11-14T21:39:22.127Z,6.30
2022-11-14T21:44:25.641Z,11.50
2022-11-14T21:49:29.020Z,10.00
2022-11-14T21:54:32.367Z,8.10
2022-11-14T21:59:36.188Z,11.40
2022-11-14T22:04:39.619Z,10.20
2022-11-14T22:09:45.526Z,9.60
2022-11-14T22:14:49.119Z,12.10
2022-11-14T22:19:52.609Z,15.20
2022-11-14T22:24:56.053Z,13.30
2022-11-14T22:29:59.644Z,13.20
2022-11-14T22:35:03.167Z,9.50
2022-11-14T22:40:08.276Z,10.00
2022-11-14T22:45:11.603Z,13.10
2022-11-14T22:50:16.174Z,13.00
2022-11-14T22:55:19.554Z,12.80
2022-11-14T23:00:23.196Z,9.00
2022-11-14T23:05:26.734Z,9.30
2022-11-14T23:10:30.315Z,8.30
2022-11-14T23:15:34.872Z,11.90
2022-11-14T23:20:38.786Z,14.10
2022-11-14T23:25:42.196Z,12.90
2022-11-14T23:30:46.125Z,14.70
2022-11-14T23:35:49.514Z,14.50
2022-11-14T23:40:58.471Z,15.30
2022-11-14T23:46:01.812Z,15.70
2022-11-14T23:51:05.453Z,15.80
2022-11-14T23:56:13.866Z,13.50
